Time;durP1;ratioP1;P1;durP2;ratioP2;P2;SDS_P1;SDS_P2;PMS_P1;PMS_P2;Temp;Humidity;BMP_temperature;BMP_pressure;BME280_temperature;BME280_humidity;BME280_pressure;Samples;Min_cycle;Max_cycle;Signal;HPM_P1;HPM_P2
2022/07/19 00:00:47;;;;;;;0.20;0.20;;;18.00;99.90;;;;;;5146986;28;20407;-80
2022/07/19 00:03:16;;;;;;;0.20;0.20;;;17.90;99.90;;;;;;5164126;27;20032;-81
2022/07/19 00:05:44;;;;;;;0.63;0.57;;;17.90;99.90;;;;;;5129771;28;20040;-82
2022/07/19 00:08:10;;;;;;;0.55;0.45;;;17.90;99.90;;;;;;5130279;28;20805;-81
2022/07/19 00:10:37;;;;;;;0.73;0.30;;;17.90;99.90;;;;;;5129989;28;20123;-80
2022/07/19 00:13:04;;;;;;;0.88;0.52;;;17.80;99.90;;;;;;5129877;28;20044;-81
2022/07/19 00:15:31;;;;;;;0.30;0.30;;;17.80;99.90;;;;;;5147057;28;20043;-82
2022/07/19 00:17:57;;;;;;;0.40;0.20;;;17.80;99.90;;;;;;5129818;28;20500;-82
2022/07/19 00:20:24;;;;;;;0.68;0.40;;;17.80;99.90;;;;;;5129625;28;20044;-82
2022/07/19 00:22:51;;;;;;;0.80;0.47;;;17.70;99.90;;;;;;5130087;28;20078;-81
2022/07/19 00:25:17;;;;;;;0.73;0.28;;;17.70;99.90;;;;;;5146942;28;20036;-81
2022/07/19 00:27:44;;;;;;;0.80;0.40;;;17.70;99.90;;;;;;5146592;28;20082;-81
2022/07/19 00:30:11;;;;;;;0.30;0.22;;;17.70;99.90;;;;;;5129651;28;20504;-82
2022/07/19 00:32:38;;;;;;;0.60;0.40;;;17.70;99.90;;;;;;5129597;28;20548;-81
2022/07/19 00:35:05;;;;;;;0.63;0.40;;;17.60;99.90;;;;;;5147129;28;20123;-80
2022/07/19 00:37:32;;;;;;;0.43;0.28;;;17.60;99.90;;;;;;5146079;28;20420;-82
2022/07/19 00:39:59;;;;;;;0.47;0.30;;;17.60;99.90;;;;;;5130122;28;20043;-80
2022/07/19 00:42:26;;;;;;;0.85;0.60;;;17.60;99.90;;;;;;5165067;27;20043;-81
2022/07/19 00:44:53;;;;;;;0.45;0.40;;;17.60;99.90;;;;;;5133641;28;20035;-81
2022/07/19 00:47:21;;;;;;;0.73;0.47;;;17.60;99.90;;;;;;5150650;28;20036;-81
2022/07/19 00:49:47;;;;;;;0.47;0.25;;;17.50;99.90;;;;;;5150764;28;20028;-81
2022/07/19 00:52:15;;;;;;;0.73;0.52;;;17.50;99.90;;;;;;5150582;28;20605;-81
2022/07/19 00:54:44;;;;;;;0.50;0.50;;;17.50;99.90;;;;;;5150171;28;20077;-81
2022/07/19 00:57:14;;;;;;;0.43;0.28;;;17.40;99.90;;;;;;5133225;28;20377;-81
2022/07/19 00:59:43;;;;;;;0.73;0.60;;;17.40;99.90;;;;;;5150445;28;20043;-81
2022/07/19 01:02:11;;;;;;;0.75;0.40;;;17.40;99.90;;;;;;5167414;27;20113;-82
2022/07/19 01:04:38;;;;;;;0.65;0.43;;;17.30;99.90;;;;;;5133154;28;20502;-81
2022/07/19 01:07:06;;;;;;;0.57;0.40;;;17.30;99.90;;;;;;5133186;28;20039;-81
2022/07/19 01:09:36;;;;;;;1.27;0.65;;;17.30;99.90;;;;;;5149829;28;20469;-82
2022/07/19 01:12:04;;;;;;;0.30;0.30;;;17.30;99.90;;;;;;5133166;28;20043;-81
2022/07/19 01:14:31;;;;;;;0.70;0.50;;;17.30;99.90;;;;;;5133117;28;20035;-80
2022/07/19 01:17:00;;;;;;;0.90;0.35;;;17.30;99.90;;;;;;5132956;28;20040;-80
2022/07/19 01:19:26;;;;;;;0.63;0.40;;;17.20;99.90;;;;;;5150132;28;20079;-81
2022/07/19 01:21:53;;;;;;;0.45;0.43;;;17.20;99.90;;;;;;5150066;28;20075;-80
2022/07/19 01:24:20;;;;;;;0.60;0.45;;;17.20;99.90;;;;;;5133203;28;20473;-80
2022/07/19 01:26:47;;;;;;;0.95;0.57;;;17.20;99.90;;;;;;5149304;28;20066;-82
2022/07/19 01:29:17;;;;;;;0.30;0.30;;;17.10;99.90;;;;;;5167229;27;20036;-81
2022/07/19 01:31:44;;;;;;;1.05;0.40;;;17.10;99.90;;;;;;5132896;28;20084;-82
2022/07/19 01:34:10;;;;;;;0.35;0.32;;;17.10;99.90;;;;;;5132739;28;20740;-80
2022/07/19 01:36:37;;;;;;;0.55;0.50;;;17.10;99.90;;;;;;5131958;28;20042;-80
2022/07/19 01:39:04;;;;;;;0.47;0.40;;;17.10;99.90;;;;;;5132705;28;20051;-82
2022/07/19 01:41:30;;;;;;;1.35;0.50;;;17.00;99.90;;;;;;5132589;28;20036;-82
2022/07/19 01:43:57;;;;;;;0.35;0.30;;;17.00;99.90;;;;;;5166316;27;20040;-82
2022/07/19 01:46:24;;;;;;;0.20;0.20;;;17.00;99.90;;;;;;5149528;28;20092;-81
2022/07/19 01:48:50;;;;;;;0.63;0.40;;;17.00;99.90;;;;;;5149092;28;20046;-80
2022/07/19 01:51:17;;;;;;;0.85;0.47;;;17.00;99.90;;;;;;5149308;28;20040;-80
2022/07/19 01:53:44;;;;;;;0.50;0.40;;;17.00;99.90;;;;;;5165109;27;20050;-81
2022/07/19 01:56:11;;;;;;;0.80;0.55;;;16.90;99.90;;;;;;5132626;28;20050;-80
2022/07/19 01:58:37;;;;;;;0.65;0.50;;;16.90;99.90;;;;;;5149047;28;20043;-80
2022/07/19 02:01:04;;;;;;;0.98;0.40;;;16.90;99.90;;;;;;5149830;28;20070;-81
2022/07/19 02:03:31;;;;;;;0.75;0.60;;;16.90;99.90;;;;;;5149051;28;20125;-79
2022/07/19 02:05:58;;;;;;;0.30;0.30;;;16.90;99.90;;;;;;5132181;28;20036;-80
2022/07/19 02:08:24;;;;;;;0.38;0.30;;;16.80;99.90;;;;;;5132017;28;20515;-81
2022/07/19 02:10:51;;;;;;;1.08;0.50;;;16.80;99.90;;;;;;5131862;28;20046;-82
2022/07/19 02:13:18;;;;;;;0.80;0.40;;;16.80;99.90;;;;;;5166233;27;20038;-80
2022/07/19 02:15:45;;;;;;;0.20;0.20;;;16.70;99.90;;;;;;5131404;28;20075;-80
2022/07/19 02:18:12;;;;;;;0.35;0.35;;;16.70;99.90;;;;;;5131788;28;20043;-81
2022/07/19 02:20:39;;;;;;;0.40;0.35;;;16.70;99.90;;;;;;5148724;28;20043;-80
2022/07/19 02:23:06;;;;;;;0.20;0.20;;;16.70;99.90;;;;;;5144024;28;20382;-82
2022/07/19 02:25:32;;;;;;;0.20;0.20;;;16.70;99.90;;;;;;5148250;28;20046;-81
2022/07/19 02:28:00;;;;;;;0.68;0.40;;;16.60;99.90;;;;;;5148145;28;20046;-80
2022/07/19 02:30:27;;;;;;;0.75;0.50;;;16.60;99.90;;;;;;5152755;27;20048;-81
2022/07/19 02:32:54;;;;;;;0.50;0.40;;;16.60;99.90;;;;;;5165093;27;20041;-82
2022/07/19 02:35:21;;;;;;;0.93;0.55;;;16.60;99.90;;;;;;5147692;28;20520;-81
2022/07/19 02:37:47;;;;;;;0.43;0.35;;;16.60;99.90;;;;;;5116070;28;20050;-80
2022/07/19 02:40:14;;;;;;;0.50;0.40;;;16.60;99.90;;;;;;5165335;27;20055;-80
2022/07/19 02:42:41;;;;;;;0.57;0.40;;;16.60;99.90;;;;;;5148069;28;20028;-81
2022/07/19 02:45:08;;;;;;;0.80;0.60;;;16.50;99.90;;;;;;5131228;28;20104;-80
2022/07/19 02:47:35;;;;;;;0.32;0.30;;;16.50;99.90;;;;;;5128500;28;20072;-80
2022/07/19 02:50:01;;;;;;;0.50;0.40;;;16.50;99.90;;;;;;5110318;28;20077;-80
2022/07/19 02:52:30;;;;;;;1.27;0.70;;;16.40;99.90;;;;;;5094367;28;20043;-80
2022/07/19 02:54:56;;;;;;;0.30;0.30;;;16.40;99.90;;;;;;5093853;28;20512;-82
2022/07/19 02:57:23;;;;;;;0.90;0.47;;;16.40;99.90;;;;;;5104517;28;20035;-82
2022/07/19 02:59:50;;;;;;;0.95;0.63;;;16.40;99.90;;;;;;5114053;28;20043;-81
2022/07/19 03:02:16;;;;;;;0.52;0.38;;;16.40;99.90;;;;;;5114225;28;20096;-81
2022/07/19 03:04:43;;;;;;;0.60;0.40;;;16.40;99.90;;;;;;5130664;28;20084;-80
2022/07/19 03:07:10;;;;;;;0.65;0.55;;;16.40;99.90;;;;;;5097261;28;20118;-81
2022/07/19 03:09:37;;;;;;;0.40;0.40;;;16.40;99.90;;;;;;5147692;28;20480;-82
2022/07/19 03:12:03;;;;;;;0.75;0.40;;;16.40;99.90;;;;;;5147452;28;20043;-81
2022/07/19 03:14:30;;;;;;;0.30;0.30;;;16.40;99.90;;;;;;5164553;27;20046;-80
2022/07/19 03:16:57;;;;;;;0.40;0.30;;;16.30;99.90;;;;;;5164194;27;20040;-82
2022/07/19 03:19:26;;;;;;;0.50;0.40;;;16.30;99.90;;;;;;5147185;28;20122;-82
2022/07/19 03:21:54;;;;;;;1.27;0.40;;;16.30;99.90;;;;;;5146909;28;20040;-81
2022/07/19 03:24:21;;;;;;;0.47;0.35;;;16.30;99.90;;;;;;5181456;27;20078;-80
2022/07/19 03:26:48;;;;;;;0.88;0.40;;;16.30;99.90;;;;;;5164003;27;20075;-81
2022/07/19 03:29:15;;;;;;;0.68;0.50;;;16.30;99.90;;;;;;5130123;28;20043;-80
2022/07/19 03:31:42;;;;;;;0.68;0.50;;;16.30;99.90;;;;;;5147109;28;20104;-80
2022/07/19 03:34:08;;;;;;;0.50;0.50;;;16.30;99.90;;;;;;5146551;28;20611;-81
2022/07/19 03:36:35;;;;;;;0.63;0.40;;;16.30;99.90;;;;;;5146937;28;20131;-80
2022/07/19 03:39:02;;;;;;;0.45;0.40;;;16.30;99.90;;;;;;5163822;27;20043;-81
2022/07/19 03:41:29;;;;;;;0.47;0.40;;;16.30;99.90;;;;;;5147252;28;20042;-80
2022/07/19 03:43:56;;;;;;;1.48;0.50;;;16.30;99.90;;;;;;5146822;28;20082;-80
2022/07/19 03:46:22;;;;;;;0.90;0.52;;;16.30;99.90;;;;;;5147098;28;20042;-82
2022/07/19 03:48:49;;;;;;;0.77;0.47;;;16.30;99.90;;;;;;5163854;27;20044;-80
2022/07/19 03:51:16;;;;;;;0.52;0.45;;;16.30;99.90;;;;;;5130313;28;20039;-80
2022/07/19 03:53:42;;;;;;;0.63;0.50;;;16.30;99.90;;;;;;5164314;27;20860;-80
2022/07/19 03:56:09;;;;;;;0.88;0.50;;;16.30;99.90;;;;;;5146600;28;20046;-82
2022/07/19 03:58:36;;;;;;;2.22;0.98;;;16.30;99.90;;;;;;5164077;27;20209;-80
2022/07/19 04:01:03;;;;;;;0.52;0.45;;;16.40;99.90;;;;;;5163815;27;20480;-80
2022/07/19 04:03:29;;;;;;;1.08;0.85;;;16.40;99.90;;;;;;5146497;28;20435;-82
2022/07/19 04:05:56;;;;;;;0.77;0.55;;;16.40;99.90;;;;;;5146631;28;20043;-80
2022/07/19 04:08:23;;;;;;;0.65;0.52;;;16.40;99.90;;;;;;5146613;28;20127;-81
2022/07/19 04:10:49;;;;;;;0.85;0.60;;;16.40;99.90;;;;;;5146334;28;20039;-80
2022/07/19 04:13:16;;;;;;;0.75;0.50;;;16.40;99.90;;;;;;5146475;28;20049;-82
2022/07/19 04:15:43;;;;;;;1.27;0.52;;;16.40;99.90;;;;;;5146753;28;20036;-82
2022/07/19 04:18:09;;;;;;;0.63;0.40;;;16.50;99.90;;;;;;5165783;27;20075;-81
2022/07/19 04:20:36;;;;;;;1.23;0.73;;;16.50;99.90;;;;;;5150898;28;20051;-82
2022/07/19 04:23:03;;;;;;;0.75;0.50;;;16.50;99.90;;;;;;5167527;27;20082;-81
2022/07/19 04:25:30;;;;;;;0.63;0.40;;;16.50;99.90;;;;;;5150798;28;20096;-80
2022/07/19 04:27:56;;;;;;;0.32;0.28;;;16.50;99.90;;;;;;5133503;28;20044;-80
2022/07/19 04:30:23;;;;;;;0.52;0.45;;;16.60;99.90;;;;;;5150863;28;20109;-82
2022/07/19 04:32:50;;;;;;;1.02;0.55;;;16.60;99.90;;;;;;5134067;28;20043;-80
2022/07/19 04:35:18;;;;;;;1.52;0.73;;;16.60;99.90;;;;;;5133269;28;20062;-80
2022/07/19 04:37:44;;;;;;;0.82;0.60;;;16.60;99.90;;;;;;5150021;28;20048;-81
2022/07/19 04:40:11;;;;;;;0.52;0.50;;;16.70;99.90;;;;;;5133381;28;20036;-80
2022/07/19 04:42:38;;;;;;;0.65;0.50;;;16.70;99.90;;;;;;5133333;28;20054;-80
2022/07/19 04:45:06;;;;;;;0.70;0.45;;;16.70;99.90;;;;;;5167127;27;20071;-81
2022/07/19 04:47:33;;;;;;;0.75;0.65;;;16.70;99.90;;;;;;5133324;28;20036;-80
2022/07/19 04:49:59;;;;;;;0.40;0.40;;;16.70;99.90;;;;;;5150388;28;20039;-82
2022/07/19 04:52:26;;;;;;;0.75;0.50;;;16.80;99.90;;;;;;5133271;28;20047;-81
2022/07/19 04:54:53;;;;;;;0.80;0.50;;;16.80;99.90;;;;;;5133376;28;20040;-80
2022/07/19 04:57:22;;;;;;;1.80;0.70;;;16.80;99.90;;;;;;5132866;28;20577;-81
2022/07/19 04:59:49;;;;;;;0.98;0.50;;;16.90;99.90;;;;;;5133006;28;20038;-80
2022/07/19 05:02:16;;;;;;;0.63;0.50;;;16.90;99.90;;;;;;5149914;28;20035;-82
2022/07/19 05:04:42;;;;;;;0.47;0.40;;;17.00;99.90;;;;;;5150068;28;20040;-80
2022/07/19 05:07:09;;;;;;;1.35;0.85;;;17.00;99.90;;;;;;5132733;28;20095;-81
2022/07/19 05:09:35;;;;;;;0.75;0.60;;;17.00;99.90;;;;;;5167163;27;20036;-81
2022/07/19 05:12:05;;;;;;;0.95;0.50;;;17.10;99.90;;;;;;5149644;28;20079;-82
2022/07/19 05:14:32;;;;;;;0.60;0.40;;;17.10;99.90;;;;;;5132568;28;20046;-80
2022/07/19 05:16:59;;;;;;;2.10;0.80;;;17.20;99.90;;;;;;5149290;28;20039;-80
2022/07/19 05:19:26;;;;;;;0.57;0.40;;;17.20;99.90;;;;;;5132626;28;20047;-82
2022/07/19 05:21:52;;;;;;;0.52;0.50;;;17.20;99.90;;;;;;5149985;28;20031;-80
2022/07/19 05:24:19;;;;;;;0.80;0.47;;;17.30;99.90;;;;;;5132181;28;20039;-80
2022/07/19 05:26:46;;;;;;;0.93;0.60;;;17.40;99.90;;;;;;5149757;28;20071;-81
2022/07/19 05:29:13;;;;;;;0.75;0.50;;;17.40;99.90;;;;;;5149296;28;20063;-82
2022/07/19 05:31:39;;;;;;;0.70;0.52;;;17.60;99.90;;;;;;5149433;28;20176;-79
2022/07/19 05:34:06;;;;;;;1.00;0.60;;;17.60;99.90;;;;;;5132211;28;20086;-81
2022/07/19 05:36:33;;;;;;;1.45;0.82;;;17.70;99.90;;;;;;5166308;27;20107;-80
2022/07/19 05:39:00;;;;;;;1.20;0.60;;;17.80;99.90;;;;;;5149370;28;20081;-80
2022/07/19 05:41:26;;;;;;;1.38;0.70;;;17.90;99.90;;;;;;5132326;28;20804;-80
2022/07/19 05:43:53;;;;;;;0.68;0.60;;;18.00;99.90;;;;;;5149571;28;20848;-80
2022/07/19 05:46:20;;;;;;;0.73;0.70;;;18.10;99.90;;;;;;5166416;27;20380;-81
2022/07/19 05:48:47;;;;;;;0.63;0.52;;;18.20;99.90;;;;;;5149187;28;20062;-80
2022/07/19 05:51:14;;;;;;;0.98;0.65;;;18.30;99.90;;;;;;5148948;28;20035;-82
2022/07/19 05:53:42;;;;;;;1.00;0.70;;;18.30;99.90;;;;;;5140209;28;20039;-82
2022/07/19 05:56:09;;;;;;;1.35;0.73;;;18.40;99.90;;;;;;5120393;28;20051;-82
2022/07/19 05:58:36;;;;;;;0.75;0.50;;;18.50;99.90;;;;;;5165491;27;20044;-80
2022/07/19 06:01:19;;;;;;;0.60;0.40;;;18.60;99.90;;;;;;5148976;28;20042;-80
2022/07/19 06:03:47;;;;;;;0.90;0.57;;;18.80;99.90;;;;;;5136386;28;20177;-81
2022/07/19 06:06:15;;;;;;;0.98;0.65;;;18.90;99.90;;;;;;5145455;28;20400;-80
2022/07/19 06:08:42;;;;;;;1.58;0.80;;;18.90;99.90;;;;;;5102747;28;20071;-81
2022/07/19 06:11:08;;;;;;;0.50;0.50;;;19.00;99.90;;;;;;5148135;28;20040;-81
2022/07/19 06:13:35;;;;;;;0.90;0.50;;;19.20;99.90;;;;;;5148563;28;20040;-82
2022/07/19 06:16:03;;;;;;;0.85;0.55;;;19.30;99.90;;;;;;5131352;28;20066;-82
2022/07/19 06:18:34;;;;;;;1.20;0.70;;;19.40;99.90;;;;;;5145394;28;20131;-83
2022/07/19 06:21:08;;;;;;;1.90;0.60;;;19.60;99.90;;;;;;5131329;28;20118;-81
2022/07/19 06:23:35;;;;;;;1.48;0.80;;;19.70;99.90;;;;;;5128342;28;20068;-83
2022/07/19 06:26:03;;;;;;;0.40;0.25;;;19.90;99.90;;;;;;5147667;28;20043;-83
2022/07/19 06:28:30;;;;;;;1.27;0.70;;;20.00;99.90;;;;;;5114085;28;20082;-82
2022/07/19 06:30:57;;;;;;;0.95;0.47;;;20.10;99.90;;;;;;5119584;28;20046;-81
2022/07/19 06:33:27;;;;;;;0.88;0.52;;;20.20;99.90;;;;;;5127628;28;20044;-80
2022/07/19 06:35:54;;;;;;;0.60;0.50;;;20.40;99.90;;;;;;5136559;27;20031;-81
2022/07/19 06:38:20;;;;;;;0.98;0.63;;;20.50;99.90;;;;;;5108025;28;20059;-81
2022/07/19 06:40:47;;;;;;;0.70;0.50;;;20.60;99.90;;;;;;5113842;28;20066;-83
2022/07/19 06:43:14;;;;;;;0.65;0.55;;;20.80;99.90;;;;;;5112904;28;20039;-82
2022/07/19 06:45:40;;;;;;;0.50;0.40;;;20.90;99.90;;;;;;5131242;28;20062;-81
2022/07/19 06:48:07;;;;;;;1.10;0.57;;;21.00;99.90;;;;;;5147932;28;20040;-82
2022/07/19 06:50:34;;;;;;;1.10;0.55;;;21.10;99.90;;;;;;5164893;27;20036;-81
2022/07/19 06:53:01;;;;;;;0.88;0.60;;;21.30;99.90;;;;;;5131090;28;20063;-81
2022/07/19 06:55:28;;;;;;;0.80;0.52;;;21.40;99.90;;;;;;5156870;27;20044;-83
2022/07/19 06:57:55;;;;;;;0.95;0.60;;;21.60;99.90;;;;;;5104273;28;20127;-83
2022/07/19 07:00:21;;;;;;;1.17;0.70;;;21.80;99.90;;;;;;5150232;27;20174;-84
2022/07/19 07:02:48;;;;;;;0.40;0.38;;;21.90;99.90;;;;;;5164567;27;20875;-84
2022/07/19 07:05:15;;;;;;;0.43;0.40;;;22.10;99.90;;;;;;5147730;28;20388;-83
2022/07/19 07:07:42;;;;;;;0.77;0.60;;;22.30;99.90;;;;;;5125540;28;20036;-84
2022/07/19 07:10:09;;;;;;;0.77;0.47;;;22.40;99.90;;;;;;5163527;27;20120;-81
2022/07/19 07:12:37;;;;;;;0.50;0.40;;;22.60;99.90;;;;;;5147516;28;20172;-84
2022/07/19 07:15:05;;;;;;;1.38;0.70;;;22.70;99.90;;;;;;5147515;28;20524;-84
2022/07/19 07:17:32;;;;;;;1.30;0.77;;;22.80;99.90;;;;;;5138320;28;20044;-85
2022/07/19 07:19:59;;;;;;;1.23;0.70;;;23.00;99.90;;;;;;5132327;28;20023;-85
2022/07/19 07:22:27;;;;;;;0.88;0.60;;;23.10;99.90;;;;;;5138909;28;20028;-85
2022/07/19 07:24:53;;;;;;;1.25;0.75;;;23.30;99.90;;;;;;5135085;28;20032;-85
2022/07/19 07:27:20;;;;;;;0.60;0.50;;;23.40;99.90;;;;;;5116435;28;20506;-84
2022/07/19 07:29:47;;;;;;;1.15;0.50;;;23.50;99.90;;;;;;5130955;28;20036;-84
2022/07/19 07:32:14;;;;;;;0.60;0.40;;;23.60;99.90;;;;;;5113193;28;20528;-85
2022/07/19 07:34:40;;;;;;;0.52;0.32;;;23.80;99.90;;;;;;5147043;28;20028;-85
2022/07/19 07:37:07;;;;;;;1.08;0.63;;;24.00;99.90;;;;;;5164088;27;20125;-84
2022/07/19 07:39:34;;;;;;;0.47;0.35;;;24.10;99.90;;;;;;5146192;28;20043;-81
2022/07/19 07:42:00;;;;;;;1.02;0.60;;;24.20;99.90;;;;;;5130274;28;20043;-82
2022/07/19 07:44:27;;;;;;;0.30;0.30;;;24.50;99.90;;;;;;5146220;28;20031;-81
2022/07/19 07:46:54;;;;;;;0.82;0.47;;;24.60;99.90;;;;;;5129831;28;20443;-81
2022/07/19 07:49:21;;;;;;;0.90;0.60;;;24.80;99.90;;;;;;5146562;28;20389;-81
2022/07/19 07:51:47;;;;;;;0.93;0.65;;;25.00;99.90;;;;;;5122877;28;20048;-80
2022/07/19 07:54:14;;;;;;;1.00;0.60;;;25.20;99.90;;;;;;5109166;28;20061;-80
2022/07/19 07:56:41;;;;;;;0.68;0.50;;;25.30;99.90;;;;;;5143071;28;20047;-80
2022/07/19 07:59:08;;;;;;;0.73;0.40;;;25.40;99.90;;;;;;5126458;28;20051;-82
2022/07/19 08:01:37;;;;;;;0.55;0.50;;;25.40;99.90;;;;;;5126230;28;20488;-81
2022/07/19 08:04:04;;;;;;;0.88;0.60;;;25.60;99.90;;;;;;5159736;27;20039;-79
2022/07/19 08:06:31;;;;;;;0.90;0.57;;;25.60;99.90;;;;;;5163191;27;20047;-83
2022/07/19 08:08:57;;;;;;;0.88;0.52;;;25.80;99.90;;;;;;5163789;27;20035;-83
2022/07/19 08:11:24;;;;;;;1.00;0.60;;;25.90;99.90;;;;;;5141437;28;20493;-83
2022/07/19 08:13:51;;;;;;;0.30;0.20;;;26.10;99.90;;;;;;5112412;28;20621;-83
2022/07/19 08:16:17;;;;;;;0.85;0.50;;;26.20;99.90;;;;;;5095871;28;20118;-83
2022/07/19 08:18:44;;;;;;;0.73;0.50;;;26.30;99.90;;;;;;5095322;28;20051;-83
2022/07/19 08:21:11;;;;;;;0.40;0.40;;;26.30;99.90;;;;;;5113739;28;20129;-83
2022/07/19 08:23:39;;;;;;;1.00;0.60;;;26.40;99.90;;;;;;5125596;28;20043;-83
2022/07/19 08:26:06;;;;;;;0.40;0.35;;;26.50;99.90;;;;;;5106818;28;20446;-83
2022/07/19 08:28:33;;;;;;;0.95;0.60;;;26.70;99.90;;;;;;5112065;28;20031;-83
2022/07/19 08:30:59;;;;;;;1.52;0.57;;;26.80;99.90;;;;;;5112478;28;20039;-82
2022/07/19 08:33:26;;;;;;;1.10;0.65;;;26.80;99.90;;;;;;5111489;28;20047;-82
2022/07/19 08:35:53;;;;;;;0.93;0.50;;;27.00;99.90;;;;;;5129507;28;20043;-82
2022/07/19 08:38:20;;;;;;;0.60;0.43;;;27.10;99.90;;;;;;5108435;28;20048;-83
2022/07/19 08:40:51;;;;;;;5.53;0.60;;;27.20;99.90;;;;;;5116641;28;20571;-83
2022/07/19 08:43:18;;;;;;;0.93;0.60;;;27.30;99.90;;;;;;5123312;28;20040;-82
2022/07/19 08:45:45;;;;;;;0.38;0.38;;;27.40;99.90;;;;;;5138362;28;20107;-82
2022/07/19 08:48:12;;;;;;;0.75;0.50;;;27.50;99.90;;;;;;5111651;28;20453;-83
2022/07/19 08:50:40;;;;;;;1.40;0.50;;;27.70;99.90;;;;;;5090581;28;20043;-83
2022/07/19 08:53:07;;;;;;;0.52;0.40;;;27.70;99.90;;;;;;5128816;28;20047;-82
2022/07/19 08:55:34;;;;;;;0.93;0.60;;;27.90;99.90;;;;;;5111571;28;20043;-82
2022/07/19 08:58:01;;;;;;;0.50;0.50;;;27.90;99.90;;;;;;5111630;28;20040;-83
2022/07/19 09:00:35;;;;;;;0.43;0.40;;;28.10;99.90;;;;;;5095835;28;20077;-83
2022/07/19 09:03:04;;;;;;;1.10;0.70;;;28.10;99.90;;;;;;5117113;28;20508;-83
2022/07/19 09:05:36;;;;;;;1.13;0.65;;;28.30;99.90;;;;;;5156910;27;20036;-83
2022/07/19 09:08:12;;;;;;;0.40;0.40;;;28.40;99.90;;;;;;5128696;28;20044;-85
2022/07/19 09:11:13;;;;;;;2.00;0.73;;;28.50;99.90;;;;;;5145834;28;20047;-84
2022/07/19 09:13:32;;;;;;;1.02;0.60;;;28.70;99.90;;;;;;5128782;28;20040;-83
2022/07/19 09:15:59;;;;;;;0.60;0.45;;;28.80;99.90;;;;;;5129108;28;20124;-85
2022/07/19 09:18:29;;;;;;;0.63;0.40;;;29.00;99.90;;;;;;5146384;28;20522;-84
2022/07/19 09:20:57;;;;;;;0.55;0.38;;;29.00;99.90;;;;;;5149898;28;20483;-85
2022/07/19 09:23:25;;;;;;;0.43;0.35;;;29.10;99.80;;;;;;5131733;28;20046;-83
2022/07/19 09:25:54;;;;;;;0.82;0.60;;;29.30;99.90;;;;;;5149480;28;20488;-85
2022/07/19 09:28:23;;;;;;;1.08;0.60;;;29.40;99.90;;;;;;5132130;28;20127;-84
2022/07/19 09:30:52;;;;;;;2.80;0.50;;;29.60;99.90;;;;;;5148631;28;20048;-83
2022/07/19 09:33:25;;;;;;;0.63;0.50;;;29.70;99.90;;;;;;5132166;28;20043;-85
2022/07/19 09:35:56;;;;;;;0.85;0.55;;;29.80;99.40;;;;;;5132577;28;20040;-83
2022/07/19 09:38:26;;;;;;;0.70;0.50;;;29.90;96.40;;;;;;5131878;28;20043;-82
2022/07/19 09:41:14;;;;;;;0.73;0.40;;;29.90;96.10;;;;;;5115504;28;20099;-83
2022/07/19 09:43:52;;;;;;;0.70;0.50;;;30.00;96.00;;;;;;5148613;28;20039;-85
2022/07/19 09:46:45;;;;;;;0.68;0.40;;;30.00;97.10;;;;;;5148808;28;20751;-82
2022/07/19 09:49:15;;;;;;;0.40;0.40;;;30.20;95.30;;;;;;5137787;27;20036;-85
2022/07/19 09:51:45;;;;;;;0.90;0.40;;;30.30;97.80;;;;;;5121022;28;20126;-82
2022/07/19 09:54:17;;;;;;;0.30;0.30;;;30.40;94.70;;;;;;5148696;28;20057;-86
2022/07/19 09:56:45;;;;;;;0.93;0.50;;;30.40;93.40;;;;;;5132113;28;20039;-86
2022/07/19 09:59:13;;;;;;;0.50;0.50;;;30.60;94.30;;;;;;5131463;28;20104;-82
2022/07/19 10:01:40;;;;;;;0.63;0.38;;;30.70;96.90;;;;;;5131239;28;20110;-84
2022/07/19 10:04:12;;;;;;;1.20;0.60;;;30.90;94.70;;;;;;5126602;28;20044;-84
2022/07/19 10:06:41;;;;;;;0.30;0.30;;;31.00;95.20;;;;;;5146896;28;20501;-84
2022/07/19 10:09:10;;;;;;;0.40;0.40;;;31.10;95.90;;;;;;5122550;28;20524;-84
2022/07/19 10:11:40;;;;;;;0.20;0.20;;;31.40;93.80;;;;;;5110817;28;20129;-84
2022/07/19 10:14:07;;;;;;;0.75;0.50;;;31.40;94.20;;;;;;5127376;28;20564;-85
2022/07/19 10:17:10;;;;;;;3.28;0.80;;;31.50;94.10;;;;;;5147220;28;20046;-84
2022/07/19 10:19:41;;;;;;;1.75;0.57;;;31.60;92.60;;;;;;5110980;28;20514;-83
2022/07/19 10:22:17;;;;;;;0.30;0.30;;;31.70;93.50;;;;;;5127743;28;20089;-82
2022/07/19 10:24:44;;;;;;;0.60;0.52;;;31.70;92.60;;;;;;5131335;28;20059;-92
2022/07/19 10:27:12;;;;;;;0.32;0.30;;;31.80;93.50;;;;;;5156221;27;20074;-90
2022/07/19 10:29:39;;;;;;;0.52;0.43;;;31.80;93.20;;;;;;5159530;27;20787;-89
2022/07/19 10:32:08;;;;;;;0.68;0.45;;;31.80;94.10;;;;;;5129106;28;20464;-90
2022/07/19 10:34:35;;;;;;;0.60;0.47;;;31.90;91.80;;;;;;5130227;28;20047;-91
2022/07/19 10:37:03;;;;;;;0.28;0.28;;;32.00;91.20;;;;;;5112642;28;20048;-88
2022/07/19 10:39:33;;;;;;;0.47;0.40;;;31.90;92.00;;;;;;5130168;28;20082;-91
2022/07/19 10:42:05;;;;;;;0.57;0.50;;;32.00;92.10;;;;;;5166392;27;20026;-90
2022/07/19 10:44:32;;;;;;;0.35;0.35;;;32.00;90.00;;;;;;5133555;28;20097;-88
2022/07/19 10:46:59;;;;;;;0.50;0.45;;;32.10;92.20;;;;;;5149701;28;20039;-90
2022/07/19 10:49:45;;;;;;;0.40;0.40;;;32.10;91.50;;;;;;5149142;28;20045;-88
2022/07/19 10:52:27;;;;;;;3.03;0.52;;;32.10;88.70;;;;;;5126029;28;20079;-91
2022/07/19 10:55:16;;;;;;;0.65;0.40;;;32.10;89.80;;;;;;5166736;27;20039;-90
2022/07/19 10:58:05;;;;;;;0.40;0.40;;;32.20;89.30;;;;;;5165989;27;20039;-88
2022/07/19 11:00:44;;;;;;;0.50;0.50;;;32.30;86.30;;;;;;5128930;28;20051;-90
2022/07/19 11:03:23;;;;;;;0.15;0.15;;;32.30;90.70;;;;;;5131619;28;20062;-88
2022/07/19 11:05:58;;;;;;;1.00;0.43;;;32.30;87.90;;;;;;5160959;27;20039;-89
2022/07/19 11:08:35;;;;;;;0.30;0.30;;;32.40;87.40;;;;;;5131068;28;20062;-88
2022/07/19 11:11:21;;;;;;;0.30;0.30;;;32.60;85.80;;;;;;5131509;28;20419;-88
2022/07/19 11:13:50;;;;;;;0.73;0.40;;;32.60;84.50;;;;;;5130571;28;20036;-90
2022/07/19 11:16:18;;;;;;;0.25;0.25;;;32.70;90.50;;;;;;5113676;28;20047;-86
2022/07/19 11:18:45;;;;;;;0.40;0.40;;;32.80;85.10;;;;;;5131459;28;20038;-91
2022/07/19 11:21:14;;;;;;;0.22;0.20;;;32.80;88.40;;;;;;5145189;28;20036;-90
2022/07/19 11:23:44;;;;;;;0.40;0.40;;;32.90;88.50;;;;;;5145426;28;20044;-90
2022/07/19 11:26:20;;;;;;;0.30;0.30;;;33.00;87.10;;;;;;5147942;28;20039;-86
2022/07/19 11:28:48;;;;;;;0.70;0.40;;;33.10;85.10;;;;;;5129994;28;20500;-86
2022/07/19 11:31:24;;;;;;;0.60;0.40;;;33.30;86.60;;;;;;5148612;27;20044;-87
2022/07/19 11:33:56;;;;;;;0.50;0.40;;;33.30;85.10;;;;;;5131082;28;20126;-90
2022/07/19 11:36:23;;;;;;;0.63;0.40;;;33.30;77.90;;;;;;5164590;27;20070;-86
2022/07/19 11:38:56;;;;;;;0.40;0.40;;;33.30;82.40;;;;;;5146176;28;20044;-86
2022/07/19 11:41:31;;;;;;;0.52;0.30;;;33.20;82.30;;;;;;5144755;28;20135;-87
2022/07/19 11:44:10;;;;;;;0.57;0.50;;;33.30;83.20;;;;;;5110181;28;20847;-87
2022/07/19 11:46:45;;;;;;;0.20;0.20;;;33.40;81.40;;;;;;5144128;28;20043;-90
2022/07/19 11:49:13;;;;;;;0.63;0.43;;;33.50;82.50;;;;;;5144890;28;20093;-90
2022/07/19 11:51:40;;;;;;;0.45;0.30;;;33.60;77.40;;;;;;5127049;28;20515;-89
2022/07/19 11:54:07;;;;;;;0.68;0.35;;;33.60;80.10;;;;;;5127231;28;20055;-89
2022/07/19 11:56:35;;;;;;;0.35;0.30;;;33.60;80.30;;;;;;5127307;28;20043;-89
2022/07/19 11:59:10;;;;;;;0.50;0.40;;;33.70;79.30;;;;;;5110063;28;20044;-89
2022/07/19 12:01:39;;;;;;;0.20;0.20;;;33.80;78.70;;;;;;5110828;28;20048;-88
2022/07/19 12:04:15;;;;;;;0.13;0.13;;;33.90;75.00;;;;;;5144088;28;20032;-87
2022/07/19 12:06:48;;;;;;;0.45;0.40;;;33.90;75.70;;;;;;5144964;28;20032;-87
2022/07/19 12:09:25;;;;;;;0.25;0.25;;;34.00;75.30;;;;;;5147217;28;20132;-87
2022/07/19 12:11:54;;;;;;;0.40;0.40;;;34.00;74.10;;;;;;5163714;27;20047;-87
2022/07/19 12:14:26;;;;;;;0.73;0.60;;;34.00;75.30;;;;;;5130998;28;20044;-90
2022/07/19 12:17:16;;;;;;;0.38;0.35;;;34.00;73.20;;;;;;5130218;28;20043;-90
2022/07/19 12:19:54;;;;;;;0.60;0.30;;;34.00;71.90;;;;;;5129845;28;20051;-87
2022/07/19 12:22:34;;;;;;;0.60;0.38;;;34.00;77.20;;;;;;5130650;28;20032;-87
2022/07/19 12:25:02;;;;;;;0.30;0.30;;;34.10;73.20;;;;;;5147309;28;20081;-87
2022/07/19 12:27:30;;;;;;;0.38;0.38;;;34.20;69.40;;;;;;5130072;28;20969;-90
2022/07/19 12:30:02;;;;;;;0.30;0.30;;;34.30;75.80;;;;;;5146686;28;20246;-87
2022/07/19 12:32:33;;;;;;;0.40;0.28;;;34.40;71.60;;;;;;5145828;28;20031;-86
2022/07/19 12:35:11;;;;;;;0.32;0.30;;;34.40;72.40;;;;;;5163939;28;20040;-87
2022/07/19 12:37:44;;;;;;;0.40;0.30;;;34.30;70.00;;;;;;5126798;28;20523;-87
2022/07/19 12:40:25;;;;;;;0.30;0.30;;;34.30;74.30;;;;;;5114207;28;20073;-87
2022/07/19 12:43:03;;;;;;;0.28;0.25;;;34.30;71.90;;;;;;5120723;28;20549;-90
2022/07/19 12:45:46;;;;;;;0.80;0.43;;;34.30;72.90;;;;;;5168250;27;20089;-90
2022/07/19 12:48:14;;;;;;;0.57;0.43;;;34.30;69.20;;;;;;5134366;28;20089;-89
2022/07/19 12:50:44;;;;;;;0.20;0.20;;;34.30;67.90;;;;;;5168428;27;20035;-86
2022/07/19 12:53:13;;;;;;;0.40;0.40;;;34.30;69.70;;;;;;5151111;28;20039;-89
2022/07/19 12:55:43;;;;;;;0.30;0.30;;;34.30;68.90;;;;;;5134311;28;20083;-86